Wetterdaten: Woche 05.12.16 - 11.12.16 (KW49)
Datum Zeit Temp. A. Feuchte A. Luftdruck Regen Wind Richtung Taupunkt Windchill Windben
05.12.2016 00:00 -2,3 C 95 % 1028,0 hPa 0,0 l/m 0,7 km/h (0 Bft) NO -3,0 C -2,3 C 2,3 km/h (1 Bft)
05.12.2016 01:00 -2,9 C 95 % 1027,7 hPa 0,0 l/m 0,7 km/h (0 Bft) O-NO -3,5 C -2,9 C 2,5 km/h (1 Bft)
05.12.2016 02:00 -3,9 C 95 % 1027,8 hPa 0,0 l/m 0,6 km/h (0 Bft) NO -4,6 C -3,9 C 2,3 km/h (1 Bft)
05.12.2016 03:00 -4,7 C 95 % 1027,7 hPa 0,0 l/m 0,0 km/h (0 Bft) NO -5,3 C -4,7 C 0,1 km/h (0 Bft)
05.12.2016 04:00 -5,2 C 95 % 1027,6 hPa 0,0 l/m 0,0 km/h (0 Bft) NO -5,8 C -5,2 C 0,4 km/h (0 Bft)
05.12.2016 05:00 -5,9 C 95 % 1027,6 hPa 0,0 l/m 0,0 km/h (0 Bft) NO -6,6 C -5,9 C 0,0 km/h (0 Bft)
05.12.2016 06:00 -6,4 C 94 % 1027,7 hPa 0,0 l/m 0,0 km/h (0 Bft) N -7,2 C -6,4 C 0,0 km/h (0 Bft)
05.12.2016 07:00 -6,9 C 94 % 1027,9 hPa 0,0 l/m 0,0 km/h (0 Bft) N -7,7 C -6,9 C 0,0 km/h (0 Bft)
05.12.2016 08:00 -6,8 C 95 % 1028,3 hPa 0,0 l/m 0,0 km/h (0 Bft) N -7,5 C -6,8 C 0,2 km/h (0 Bft)
05.12.2016 09:00 -3,9 C 95 % 1028,6 hPa 0,0 l/m 0,2 km/h (0 Bft) N -4,6 C -3,9 C 0,6 km/h (0 Bft)
05.12.2016 10:00 -0,3 C 88 % 1028,8 hPa 0,0 l/m 1,0 km/h (0 Bft) NO -2,0 C -0,3 C 2,1 km/h (1 Bft)
05.12.2016 11:00 2,4 C 84 % 1028,5 hPa 0,0 l/m 2,4 km/h (1 Bft) N-NO -0,0 C 2,4 C 4,3 km/h (1 Bft)
05.12.2016 12:00 4,7 C 79 % 1028,2 hPa 0,0 l/m 1,9 km/h (1 Bft) N 1,4 C 4,7 C 3,8 km/h (1 Bft)
05.12.2016 13:00 7,2 C 73 % 1027,7 hPa 0,0 l/m 2,2 km/h (1 Bft) W-NW 2,6 C 7,2 C 4,7 km/h (1 Bft)
05.12.2016 14:00 8,6 C 70 % 1027,5 hPa 0,0 l/m 1,0 km/h (0 Bft) W-NW 3,3 C 8,6 C 2,5 km/h (1 Bft)
05.12.2016 15:00 8,9 C 66 % 1027,6 hPa 0,0 l/m 0,1 km/h (0 Bft) W-NW 2,9 C 8,9 C 0,9 km/h (0 Bft)
05.12.2016 16:00 4,4 C 77 % 1028,0 hPa 0,0 l/m 0,1 km/h (0 Bft) W-NW 0,7 C 4,4 C 0,5 km/h (0 Bft)
05.12.2016 17:00 -0,0 C 89 % 1028,5 hPa 0,0 l/m 0,0 km/h (0 Bft) W-NW -1,7 C -0,0 C 0,2 km/h (0 Bft)
05.12.2016 18:00 -1,3 C 91 % 1028,9 hPa 0,0 l/m 0,0 km/h (0 Bft) W-NW -2,5 C -1,3 C 0,1 km/h (0 Bft)
05.12.2016 19:00 -2,4 C 93 % 1029,1 hPa 0,0 l/m 0,0 km/h (0 Bft) W-NW -3,3 C -2,4 C 0,3 km/h (0 Bft)
05.12.2016 20:00 -3,0 C 94 % 1029,3 hPa 0,0 l/m 0,0 km/h (0 Bft) W-NW -3,8 C -3,0 C 0,0 km/h (0 Bft)
05.12.2016 21:00 -3,3 C 95 % 1029,5 hPa 0,0 l/m 0,0 km/h (0 Bft) W-NW -4,0 C -3,3 C 0,0 km/h (0 Bft)
05.12.2016 22:00 -3,7 C 95 % 1029,7 hPa 0,0 l/m 0,0 km/h (0 Bft) W-NW -4,4 C -3,7 C 0,0 km/h (0 Bft)
05.12.2016 23:00 -4,1 C 95 % 1029,8 hPa 0,0 l/m 0,0 km/h (0 Bft) W-NW -4,7 C -4,1 C 0,0 km/h (0 Bft)
06.12.2016 00:00 -4,1 C 96 % 1029,9 hPa 0,0 l/m 0,0 km/h (0 Bft) N -4,7 C -4,1 C 0,2 km/h (0 Bft)
06.12.2016 01:00 -4,3 C 95 % 1029,9 hPa 0,0 l/m 0,0 km/h (0 Bft) N -5,0 C -4,3 C 0,1 km/h (0 Bft)
06.12.2016 02:00 -4,5 C 95 % 1030,1 hPa 0,0 l/m 0,0 km/h (0 Bft) N -5,2 C -4,5 C 0,0 km/h (0 Bft)
06.12.2016 03:00 -4,9 C 95 % 1030,5 hPa 0,0 l/m 0,0 km/h (0 Bft) N -5,5 C -4,9 C 0,0 km/h (0 Bft)
06.12.2016 04:00 -5,0 C 95 % 1030,6 hPa 0,0 l/m 0,0 km/h (0 Bft) N -5,7 C -5,0 C 0,0 km/h (0 Bft)
06.12.2016 05:00 -5,1 C 95 % 1030,6 hPa 0,0 l/m 0,0 km/h (0 Bft) N -5,7 C -5,1 C 0,1 km/h (0 Bft)
06.12.2016 06:00 -5,1 C 95 % 1030,9 hPa 0,0 l/m 0,0 km/h (0 Bft) W-NW -5,8 C -5,1 C 0,2 km/h (0 Bft)
06.12.2016 07:00 -5,1 C 95 % 1031,3 hPa 0,0 l/m 0,0 km/h (0 Bft) W-NW -5,8 C -5,1 C 0,3 km/h (0 Bft)
06.12.2016 08:00 -5,0 C 96 % 1031,6 hPa 0,0 l/m 0,0 km/h (0 Bft) W-NW -5,6 C -5,0 C 0,0 km/h (0 Bft)
06.12.2016 09:00 -2,5 C 97 % 1032,0 hPa 0,0 l/m 0,2 km/h (0 Bft) W-NW -2,9 C -2,5 C 0,5 km/h (0 Bft)
06.12.2016 10:00 0,2 C 92 % 1032,3 hPa 0,3 l/m 0,6 km/h (0 Bft) W-NW -1,0 C 0,2 C 1,9 km/h (1 Bft)
06.12.2016 11:00 3,5 C 85 % 1032,0 hPa 0,0 l/m 1,4 km/h (1 Bft) W-NW 1,3 C 3,5 C 2,9 km/h (1 Bft)
06.12.2016 12:00 6,1 C 79 % 1031,8 hPa 0,0 l/m 1,6 km/h (1 Bft) W-NW 2,7 C 6,1 C 2,9 km/h (1 Bft)
06.12.2016 13:00 8,7 C 72 % 1031,6 hPa 0,0 l/m 1,3 km/h (1 Bft) NW 3,9 C 8,7 C 2,9 km/h (1 Bft)
06.12.2016 14:00 9,5 C 69 % 1031,5 hPa 0,0 l/m 0,8 km/h (0 Bft) NW 4,0 C 9,5 C 1,7 km/h (1 Bft)
06.12.2016 15:00 8,8 C 68 % 1031,9 hPa 0,0 l/m 0,1 km/h (0 Bft) NW 3,3 C 8,8 C 0,5 km/h (0 Bft)
06.12.2016 16:00 4,7 C 77 % 1032,6 hPa 0,0 l/m 0,0 km/h (0 Bft) NW 1,0 C 4,7 C 0,4 km/h (0 Bft)
06.12.2016 17:00 0,3 C 89 % 1033,3 hPa 0,0 l/m 0,0 km/h (0 Bft) NW -1,4 C 0,3 C 0,5 km/h (0 Bft)
06.12.2016 18:00 -1,1 C 91 % 1033,6 hPa 0,0 l/m 0,0 km/h (0 Bft) NW -2,4 C -1,1 C 0,0 km/h (0 Bft)
06.12.2016 19:00 -2,3 C 94 % 1034,0 hPa 0,0 l/m 0,0 km/h (0 Bft) NW -3,1 C -2,3 C 0,4 km/h (0 Bft)
06.12.2016 20:00 -2,7 C 94 % 1034,0 hPa 0,0 l/m 0,0 km/h (0 Bft) NW -3,5 C -2,7 C 0,0 km/h (0 Bft)
06.12.2016 21:00 -3,4 C 95 % 1034,2 hPa 0,0 l/m 0,0 km/h (0 Bft) NW -4,1 C -3,4 C 0,0 km/h (0 Bft)
06.12.2016 22:00 -3,7 C 95 % 1034,2 hPa 0,0 l/m 0,1 km/h (0 Bft) NW -4,3 C -3,7 C 0,5 km/h (0 Bft)
06.12.2016 23:00 -4,2 C 95 % 1034,3 hPa 0,0 l/m 0,0 km/h (0 Bft) NW -4,9 C -4,2 C 0,3 km/h (0 Bft)
07.12.2016 00:00 -4,5 C 95 % 1034,5 hPa 0,0 l/m 0,0 km/h (0 Bft) NW -5,2 C -4,5 C 0,6 km/h (0 Bft)
07.12.2016 01:00 -5,1 C 95 % 1034,6 hPa 0,0 l/m 0,0 km/h (0 Bft) NW -5,8 C -5,1 C 0,3 km/h (0 Bft)
07.12.2016 02:00 -5,1 C 95 % 1034,8 hPa 0,0 l/m 0,1 km/h (0 Bft) NW -5,7 C -5,1 C 0,5 km/h (0 Bft)
07.12.2016 03:00 -5,2 C 95 % 1035,0 hPa 0,0 l/m 0,1 km/h (0 Bft) NW -5,9 C -5,2 C 0,4 km/h (0 Bft)
07.12.2016 04:00 -5,5 C 95 % 1035,0 hPa 0,0 l/m 0,1 km/h (0 Bft) NW -6,2 C -5,5 C 0,7 km/h (0 Bft)
07.12.2016 05:00 -6,0 C 94 % 1035,2 hPa 0,0 l/m 0,0 km/h (0 Bft) NW -6,8 C -6,0 C 0,0 km/h (0 Bft)
07.12.2016 06:00 -6,0 C 94 % 1035,2 hPa 0,0 l/m 0,0 km/h (0 Bft) NW -6,8 C -6,0 C 0,1 km/h (0 Bft)
07.12.2016 07:00 -6,3 C 94 % 1035,2 hPa 0,0 l/m 0,0 km/h (0 Bft) NW -7,0 C -6,3 C 0,1 km/h (0 Bft)
07.12.2016 08:00 -6,2 C 94 % 1035,3 hPa 0,0 l/m 0,0 km/h (0 Bft) NW -6,9 C -6,2 C 0,0 km/h (0 Bft)
07.12.2016 09:00 -4,8 C 96 % 1035,4 hPa 0,0 l/m 0,1 km/h (0 Bft) NW -5,3 C -4,8 C 0,4 km/h (0 Bft)
07.12.2016 10:00 -1,6 C 93 % 1035,3 hPa 0,0 l/m 1,0 km/h (0 Bft) NW -2,6 C -1,6 C 1,9 km/h (1 Bft)
07.12.2016 11:00 2,0 C 87 % 1034,7 hPa 0,0 l/m 1,3 km/h (1 Bft) NW 0,0 C 2,0 C 3,1 km/h (1 Bft)
07.12.2016 12:00 4,7 C 81 % 1034,4 hPa 0,0 l/m 1,3 km/h (1 Bft) NW 1,7 C 4,7 C 2,8 km/h (1 Bft)
07.12.2016 13:00 7,8 C 72 % 1034,1 hPa 0,0 l/m 1,0 km/h (0 Bft) N 3,1 C 7,8 C 2,7 km/h (1 Bft)
07.12.2016 14:00 8,9 C 67 % 1033,9 hPa 0,0 l/m 0,6 km/h (0 Bft) N 3,1 C 8,9 C 1,9 km/h (1 Bft)
07.12.2016 15:00 8,5 C 65 % 1034,0 hPa 0,0 l/m 0,1 km/h (0 Bft) N 2,4 C 8,5 C 0,7 km/h (0 Bft)
07.12.2016 16:00 4,4 C 73 % 1034,6 hPa 0,0 l/m 0,0 km/h (0 Bft) N 0,0 C 4,4 C 0,0 km/h (0 Bft)
07.12.2016 17:00 0,7 C 88 % 1035,5 hPa 0,0 l/m 0,0 km/h (0 Bft) N -1,1 C 0,7 C 0,2 km/h (0 Bft)
07.12.2016 18:00 0,3 C 89 % 1035,8 hPa 0,0 l/m 0,0 km/h (0 Bft) N -1,3 C 0,3 C 0,0 km/h (0 Bft)
07.12.2016 19:00 -0,7 C 91 % 1036,2 hPa 0,0 l/m 0,0 km/h (0 Bft) N -2,0 C -0,7 C 0,4 km/h (0 Bft)
07.12.2016 20:00 -1,8 C 93 % 1036,4 hPa 0,0 l/m 0,0 km/h (0 Bft) N -2,8 C -1,8 C 0,0 km/h (0 Bft)
07.12.2016 21:00 -2,7 C 93 % 1036,4 hPa 0,0 l/m 0,0 km/h (0 Bft) N -3,6 C -2,7 C 0,5 km/h (0 Bft)
07.12.2016 22:00 -3,0 C 94 % 1036,5 hPa 0,0 l/m 0,1 km/h (0 Bft) N -3,8 C -3,0 C 0,8 km/h (0 Bft)
07.12.2016 23:00 -3,5 C 94 % 1036,5 hPa 0,0 l/m 0,1 km/h (0 Bft) N -4,3 C -3,5 C 1,2 km/h (1 Bft)
08.12.2016 00:00 -3,6 C 94 % 1036,3 hPa 0,0 l/m 0,0 km/h (0 Bft) N -4,3 C -3,6 C 0,4 km/h (0 Bft)
08.12.2016 01:00 -4,1 C 94 % 1035,9 hPa 0,0 l/m 0,0 km/h (0 Bft) N -4,9 C -4,1 C 0,0 km/h (0 Bft)
08.12.2016 02:00 -4,2 C 94 % 1036,0 hPa 0,0 l/m 0,0 km/h (0 Bft) N -5,0 C -4,2 C 0,3 km/h (0 Bft)
08.12.2016 03:00 -4,4 C 94 % 1036,1 hPa 0,0 l/m 0,0 km/h (0 Bft) N -5,2 C -4,4 C 0,1 km/h (0 Bft)
08.12.2016 04:00 -4,6 C 94 % 1035,8 hPa 0,0 l/m 0,1 km/h (0 Bft) N -5,5 C -4,6 C 0,7 km/h (0 Bft)
08.12.2016 05:00 -4,5 C 92 % 1035,6 hPa 0,0 l/m 0,0 km/h (0 Bft) N -5,5 C -4,5 C 0,4 km/h (0 Bft)
08.12.2016 06:00 -4,2 C 89 % 1035,5 hPa 0,0 l/m 0,0 km/h (0 Bft) N -5,7 C -4,2 C 0,3 km/h (0 Bft)
08.12.2016 07:00 -4,6 C 88 % 1035,6 hPa 0,0 l/m 0,0 km/h (0 Bft) N -6,2 C -4,6 C 0,7 km/h (0 Bft)
08.12.2016 08:00 -4,7 C 90 % 1036,1 hPa 0,0 l/m 0,0 km/h (0 Bft) N -6,1 C -4,7 C 0,4 km/h (0 Bft)
08.12.2016 09:00 -3,0 C 89 % 1036,1 hPa 0,0 l/m 0,2 km/h (0 Bft) N -4,5 C -3,0 C 1,7 km/h (1 Bft)
08.12.2016 10:00 0,7 C 79 % 1035,8 hPa 0,0 l/m 1,2 km/h (1 Bft) W -2,6 C 0,7 C 2,9 km/h (1 Bft)
08.12.2016 11:00 5,0 C 67 % 1035,1 hPa 0,0 l/m 1,8 km/h (1 Bft) W-NW -0,6 C 5,0 C 3,5 km/h (1 Bft)
08.12.2016 12:00 8,3 C 59 % 1034,5 hPa 0,0 l/m 1,9 km/h (1 Bft) NW 0,7 C 8,3 C 3,9 km/h (1 Bft)
08.12.2016 13:00 12,4 C 41 % 1033,5 hPa 0,0 l/m 3,8 km/h (1 Bft) NO -0,7 C 12,4 C 8,8 km/h (2 Bft)
08.12.2016 14:00 12,1 C 39 % 1033,2 hPa 0,0 l/m 3,6 km/h (1 Bft) O-NO -1,3 C 12,1 C 7,8 km/h (2 Bft)
08.12.2016 15:00 10,4 C 46 % 1033,4 hPa 0,0 l/m 0,9 km/h (0 Bft) O -0,6 C 10,4 C 3,9 km/h (1 Bft)
08.12.2016 16:00 6,3 C 58 % 1033,7 hPa 0,0 l/m 0,1 km/h (0 Bft) O -1,3 C 6,3 C 1,5 km/h (1 Bft)
08.12.2016 17:00 3,0 C 71 % 1033,9 hPa 0,0 l/m 0,1 km/h (0 Bft) O -1,7 C 3,0 C 0,6 km/h (0 Bft)
08.12.2016 18:00 2,7 C 74 % 1034,0 hPa 0,0 l/m 0,2 km/h (0 Bft) SO -1,4 C 2,7 C 1,3 km/h (1 Bft)
08.12.2016 19:00 2,4 C 78 % 1033,9 hPa 0,0 l/m 0,2 km/h (0 Bft) SO -1,0 C 2,4 C 1,7 km/h (1 Bft)
08.12.2016 20:00 2,1 C 80 % 1033,7 hPa 0,0 l/m 0,4 km/h (0 Bft) S-SO -0,9 C 2,1 C 1,7 km/h (1 Bft)
08.12.2016 21:00 1,0 C 81 % 1033,8 hPa 0,0 l/m 0,3 km/h (0 Bft) S-SO -1,9 C 1,0 C 1,3 km/h (1 Bft)
08.12.2016 22:00 -1,0 C 86 % 1034,1 hPa 0,0 l/m 0,3 km/h (0 Bft) S-SO -3,0 C -1,0 C 2,0 km/h (1 Bft)
08.12.2016 23:00 -2,1 C 89 % 1034,2 hPa 0,0 l/m 0,3 km/h (0 Bft) S-SO -3,7 C -2,1 C 1,7 km/h (1 Bft)
09.12.2016 00:00 -2,5 C 89 % 1033,7 hPa 0,0 l/m 0,3 km/h (0 Bft) S-SO -4,0 C -2,5 C 1,4 km/h (1 Bft)
09.12.2016 01:00 -2,7 C 89 % 1033,7 hPa 0,0 l/m 0,5 km/h (0 Bft) W-SW -4,3 C -2,7 C 2,1 km/h (1 Bft)
09.12.2016 02:00 -3,4 C 90 % 1033,5 hPa 0,0 l/m 0,1 km/h (0 Bft) W-SW -4,9 C -3,4 C 0,8 km/h (0 Bft)
09.12.2016 03:00 -2,5 C 88 % 1033,3 hPa 0,0 l/m 1,5 km/h (1 Bft) W-SW -4,2 C -2,5 C 3,6 km/h (1 Bft)
09.12.2016 04:00 -2,3 C 86 % 1033,2 hPa 0,0 l/m 0,5 km/h (0 Bft) W-SW -4,3 C -2,3 C 1,9 km/h (1 Bft)
09.12.2016 05:00 -1,8 C 85 % 1033,0 hPa 0,0 l/m 1,0 km/h (0 Bft) W-SW -4,0 C -1,8 C 2,7 km/h (1 Bft)
09.12.2016 06:00 -1,3 C 84 % 1033,0 hPa 0,0 l/m 1,6 km/h (1 Bft) SW -3,7 C -1,3 C 3,3 km/h (1 Bft)
09.12.2016 07:00 -0,6 C 80 % 1033,0 hPa 0,0 l/m 0,8 km/h (0 Bft) O -3,6 C -0,6 C 2,9 km/h (1 Bft)
09.12.2016 08:00 -1,2 C 84 % 1033,4 hPa 0,0 l/m 0,9 km/h (0 Bft) W-SW -3,6 C -1,2 C 3,5 km/h (1 Bft)
09.12.2016 09:00 0,5 C 80 % 1033,7 hPa 0,0 l/m 0,8 km/h (0 Bft) W-SW -2,5 C 0,5 C 2,9 km/h (1 Bft)
09.12.2016 10:00 3,6 C 73 % 1033,9 hPa 0,0 l/m 0,9 km/h (0 Bft) W-NW -0,7 C 3,6 C 2,4 km/h (1 Bft)
09.12.2016 11:00 8,5 C 59 % 1033,5 hPa 0,0 l/m 3,5 km/h (1 Bft) O-NO 0,9 C 8,5 C 7,3 km/h (2 Bft)
09.12.2016 12:00 11,2 C 48 % 1033,2 hPa 0,0 l/m 4,5 km/h (1 Bft) NO 0,6 C 11,2 C 8,8 km/h (2 Bft)
09.12.2016 13:00 11,8 C 46 % 1032,7 hPa 0,0 l/m 3,4 km/h (1 Bft) O-NO 0,7 C 11,8 C 8,2 km/h (2 Bft)
09.12.2016 14:00 11,1 C 50 % 1032,4 hPa 0,0 l/m 1,7 km/h (1 Bft) O-NO 1,1 C 11,1 C 3,7 km/h (1 Bft)
09.12.2016 15:00 9,0 C 59 % 1032,6 hPa 0,0 l/m 0,2 km/h (0 Bft) O-NO 1,4 C 9,0 C 1,5 km/h (1 Bft)
09.12.2016 16:00 6,4 C 68 % 1032,8 hPa 0,0 l/m 0,0 km/h (0 Bft) O-NO 1,0 C 6,4 C 0,5 km/h (0 Bft)
09.12.2016 17:00 3,3 C 79 % 1032,7 hPa 0,0 l/m 0,1 km/h (0 Bft) O-NO -0,0 C 3,3 C 0,8 km/h (0 Bft)
09.12.2016 18:00 1,9 C 82 % 1032,5 hPa 0,0 l/m 0,1 km/h (0 Bft) O-NO -0,7 C 1,9 C 0,7 km/h (0 Bft)
09.12.2016 19:00 0,4 C 87 % 1032,5 hPa 0,0 l/m 0,0 km/h (0 Bft) O-NO -1,5 C 0,4 C 0,3 km/h (0 Bft)
09.12.2016 20:00 -0,6 C 89 % 1032,5 hPa 0,0 l/m 0,0 km/h (0 Bft) O-NO -2,1 C -0,6 C 0,3 km/h (0 Bft)
09.12.2016 21:00 -1,3 C 92 % 1032,3 hPa 0,0 l/m 0,0 km/h (0 Bft) O-NO -2,5 C -1,3 C 0,4 km/h (0 Bft)
09.12.2016 22:00 -1,7 C 93 % 1031,8 hPa 0,0 l/m 0,1 km/h (0 Bft) O-NO -2,8 C -1,7 C 0,8 km/h (0 Bft)
09.12.2016 23:00 -2,1 C 93 % 1031,4 hPa 0,0 l/m 0,0 km/h (0 Bft) O-NO -3,1 C -2,1 C 0,0 km/h (0 Bft)
10.12.2016 00:00 -2,4 C 93 % 1031,1 hPa 0,0 l/m 0,0 km/h (0 Bft) O-NO -3,3 C -2,4 C 0,1 km/h (0 Bft)
10.12.2016 01:00 -2,5 C 94 % 1030,6 hPa 0,0 l/m 0,0 km/h (0 Bft) O-NO -3,4 C -2,5 C 0,3 km/h (0 Bft)
10.12.2016 02:00 -2,8 C 94 % 1030,4 hPa 0,0 l/m 0,0 km/h (0 Bft) O-NO -3,6 C -2,8 C 0,0 km/h (0 Bft)
10.12.2016 03:00 -2,9 C 95 % 1030,0 hPa 0,0 l/m 0,0 km/h (0 Bft) O-NO -3,6 C -2,9 C 0,1 km/h (0 Bft)
10.12.2016 04:00 -2,8 C 95 % 1029,3 hPa 0,0 l/m 0,0 km/h (0 Bft) O-NO -3,5 C -2,8 C 0,1 km/h (0 Bft)
10.12.2016 05:00 -2,7 C 94 % 1028,9 hPa 0,0 l/m 0,0 km/h (0 Bft) O-NO -3,5 C -2,7 C 0,0 km/h (0 Bft)
10.12.2016 06:00 -2,9 C 94 % 1028,8 hPa 0,0 l/m 0,0 km/h (0 Bft) O-NO -3,7 C -2,9 C 0,1 km/h (0 Bft)
10.12.2016 07:00 -3,3 C 94 % 1028,8 hPa 0,0 l/m 0,0 km/h (0 Bft) O-NO -4,1 C -3,3 C 0,3 km/h (0 Bft)
10.12.2016 08:00 -3,4 C 95 % 1028,9 hPa 0,0 l/m 0,1 km/h (0 Bft) O-NO -4,1 C -3,4 C 0,8 km/h (0 Bft)
10.12.2016 09:00 -1,1 C 92 % 1029,0 hPa 0,3 l/m 0,1 km/h (0 Bft) O-NO -2,2 C -1,1 C 0,7 km/h (0 Bft)
10.12.2016 10:00 2,9 C 80 % 1029,1 hPa 0,0 l/m 0,8 km/h (0 Bft) O-NO -0,3 C 2,9 C 2,3 km/h (1 Bft)
10.12.2016 11:00 7,0 C 65 % 1028,4 hPa 0,0 l/m 2,3 km/h (1 Bft) N 0,7 C 7,0 C 4,7 km/h (1 Bft)
10.12.2016 12:00 11,1 C 45 % 1028,0 hPa 0,0 l/m 4,2 km/h (1 Bft) O-NO -0,5 C 11,1 C 7,9 km/h (2 Bft)
10.12.2016 13:00 12,4 C 39 % 1027,5 hPa 0,0 l/m 3,9 km/h (1 Bft) O -1,2 C 12,4 C 10,5 km/h (2 Bft)
10.12.2016 14:00 12,6 C 40 % 1027,0 hPa 0,0 l/m 2,5 km/h (1 Bft) O-NO -0,8 C 12,6 C 5,6 km/h (2 Bft)
10.12.2016 15:00 11,6 C 42 % 1026,8 hPa 0,0 l/m 2,4 km/h (1 Bft) O-NO -1,1 C 11,6 C 5,3 km/h (1 Bft)
10.12.2016 16:00 7,2 C 55 % 1026,8 hPa 0,0 l/m 0,6 km/h (0 Bft) O-NO -1,4 C 7,2 C 2,1 km/h (1 Bft)
10.12.2016 17:00 2,2 C 72 % 1027,0 hPa 0,0 l/m 0,0 km/h (0 Bft) O -2,3 C 2,2 C 0,4 km/h (0 Bft)
10.12.2016 18:00 0,2 C 80 % 1027,1 hPa 0,0 l/m 0,0 km/h (0 Bft) O -2,9 C 0,2 C 0,3 km/h (0 Bft)
10.12.2016 19:00 -1,3 C 85 % 1026,9 hPa 0,0 l/m 0,0 km/h (0 Bft) O -3,6 C -1,3 C 0,7 km/h (0 Bft)
10.12.2016 20:00 -1,7 C 87 % 1026,4 hPa 0,0 l/m 0,4 km/h (0 Bft) O -3,6 C -1,7 C 1,6 km/h (1 Bft)
10.12.2016 21:00 -2,1 C 88 % 1025,9 hPa 0,0 l/m 0,3 km/h (0 Bft) SO -3,8 C -2,1 C 1,6 km/h (1 Bft)
10.12.2016 22:00 -2,2 C 89 % 1025,4 hPa 0,0 l/m 0,0 km/h (0 Bft) S-SO -3,8 C -2,2 C 0,0 km/h (0 Bft)
10.12.2016 23:00 -3,0 C 90 % 1025,2 hPa 0,0 l/m 0,0 km/h (0 Bft) S-SO -4,4 C -3,0 C 0,1 km/h (0 Bft)
11.12.2016 00:00 -3,3 C 92 % 1024,8 hPa 0,0 l/m 0,1 km/h (0 Bft) S-SO -4,4 C -3,3 C 1,2 km/h (1 Bft)
11.12.2016 01:00 -2,2 C 92 % 1024,3 hPa 0,0 l/m 0,4 km/h (0 Bft) S-SO -3,3 C -2,2 C 1,9 km/h (1 Bft)
11.12.2016 02:00 -2,1 C 92 % 1024,1 hPa 0,0 l/m 0,1 km/h (0 Bft) S-SO -3,3 C -2,1 C 1,1 km/h (0 Bft)
11.12.2016 03:00 -1,9 C 93 % 1024,0 hPa 0,0 l/m 0,5 km/h (0 Bft) S-SO -2,9 C -1,9 C 1,9 km/h (1 Bft)
11.12.2016 04:00 -2,0 C 94 % 1023,8 hPa 0,0 l/m 0,3 km/h (0 Bft) S-SO -2,8 C -2,0 C 1,3 km/h (1 Bft)
11.12.2016 05:00 -1,6 C 93 % 1023,7 hPa 0,0 l/m 0,6 km/h (0 Bft) S -2,6 C -1,6 C 1,9 km/h (1 Bft)
11.12.2016 06:00 -1,8 C 92 % 1023,5 hPa 0,0 l/m 0,4 km/h (0 Bft) S -2,9 C -1,8 C 2,0 km/h (1 Bft)
11.12.2016 07:00 -1,9 C 93 % 1023,5 hPa 0,0 l/m 0,4 km/h (0 Bft) S -2,9 C -1,9 C 1,7 km/h (1 Bft)
11.12.2016 08:00 -0,6 C 93 % 1024,2 hPa 0,0 l/m 0,5 km/h (0 Bft) S-SW -1,6 C -0,6 C 2,3 km/h (1 Bft)
11.12.2016 09:00 1,6 C 95 % 1024,8 hPa 0,8 l/m 3,4 km/h (1 Bft) SW 0,9 C 1,3 C 9,5 km/h (2 Bft)
11.12.2016 10:00 3,8 C 95 % 1025,4 hPa 0,3 l/m 2,9 km/h (1 Bft) O-NO 3,1 C 3,8 C 8,2 km/h (2 Bft)
11.12.2016 11:00 3,6 C 96 % 1024,9 hPa 0,3 l/m 3,4 km/h (1 Bft) NO 3,0 C 3,6 C 8,8 km/h (2 Bft)
11.12.2016 12:00 3,8 C 96 % 1025,0 hPa 0,0 l/m 2,5 km/h (1 Bft) O 3,2 C 3,8 C 6,5 km/h (2 Bft)
11.12.2016 13:00 3,9 C 96 % 1024,8 hPa 0,0 l/m 2,7 km/h (1 Bft) O 3,3 C 3,9 C 7,9 km/h (2 Bft)
11.12.2016 14:00 4,1 C 96 % 1024,7 hPa 0,0 l/m 1,7 km/h (1 Bft) O 3,5 C 4,1 C 5,3 km/h (1 Bft)
11.12.2016 15:00 4,1 C 95 % 1025,4 hPa 0,0 l/m 1,5 km/h (1 Bft) O-NO 3,4 C 4,1 C 4,9 km/h (1 Bft)
11.12.2016 16:00 3,8 C 95 % 1025,7 hPa 0,0 l/m 1,2 km/h (1 Bft) O-NO 3,1 C 3,8 C 4,7 km/h (1 Bft)
11.12.2016 17:00 3,4 C 95 % 1025,8 hPa 0,0 l/m 1,2 km/h (1 Bft) SO 2,7 C 3,4 C 3,7 km/h (1 Bft)
11.12.2016 18:00 3,2 C 94 % 1026,1 hPa 0,0 l/m 0,9 km/h (0 Bft) SO 2,4 C 3,2 C 3,9 km/h (1 Bft)
11.12.2016 19:00 2,6 C 94 % 1026,1 hPa 0,0 l/m 0,7 km/h (0 Bft) O-SO 1,7 C 2,6 C 3,1 km/h (1 Bft)
11.12.2016 20:00 1,7 C 95 % 1026,0 hPa 0,0 l/m 0,1 km/h (0 Bft) O-SO 1,0 C 1,7 C 0,9 km/h (0 Bft)
11.12.2016 21:00 2,0 C 96 % 1025,7 hPa 0,0 l/m 1,3 km/h (1 Bft) O 1,4 C 2,0 C 4,4 km/h (1 Bft)
11.12.2016 22:00 2,2 C 95 % 1025,8 hPa 0,0 l/m 0,9 km/h (0 Bft) O 1,4 C 2,2 C 3,6 km/h (1 Bft)
11.12.2016 23:00 2,7 C 93 % 1025,8 hPa 0,0 l/m 2,6 km/h (1 Bft) O-SO 1,6 C 2,7 C 8,9 km/h (2 Bft)
Min-Datum _ 05.12.16 10.12.16 11.12.16 - 11.12.16 - 05.12.16 05.12.16 11.12.16
_ Min-Zeit 08:00 13:40 07:00 - 22:05 - 08:00 08:00 20:00
Minimum _ -7,1 C 37 % 1023,3 hPa - 0,0 km/h (0 Bft) - -7,9 C -7,1 C 0,0 km/h (0 Bft)
Max-Datum _ 08.12.16 11.12.16 07.12.16 11.12.16 11.12.16 - 06.12.16 08.12.16 11.12.16
_ Max-Zeit 13:45 21:15 22:55 09:15 09:50 - 14:00 13:45 09:50
Maximum _ 12,9 C 97 % 1036,7 hPa 0,8 l/m 9,9 km/h
SW (2 Bft)
- 4,5 C 12,9 C 24,1 km/h
SW (4 Bft)
Durchschnitt _ 0,2 C 85 % 1030,9 hPa #1,8 l/m 0,7 km/h (0 Bft) N -2,3 C 0,2 C 1,9 km/h (1 Bft)